Time;durP1;ratioP1;P1;durP2;ratioP2;P2;SDS_P1;SDS_P2;PMS_P1;PMS_P2;Temp;Humidity;BMP_temperature;BMP_pressure;BME280_temperature;BME280_humidity;BME280_pressure;Samples;Min_cycle;Max_cycle;Signal;HPM_P1;HPM_P2
2023/07/10 00:01:12;;;;;;;;;;;28.20;55.80;;;;;;4981022;28;19937;-74
2023/07/10 00:03:39;;;;;;;;;;;28.10;55.90;;;;;;4982298;28;19936;-72
2023/07/10 00:06:06;;;;;;;;;;;28.10;55.90;;;;;;4984014;28;19930;-72
2023/07/10 00:08:32;;;;;;;;;;;28.10;56.00;;;;;;4982841;28;20407;-73
2023/07/10 00:11:00;;;;;;;;;;;28.10;56.00;;;;;;4981081;28;19933;-72
2023/07/10 00:13:27;;;;;;;;;;;28.00;56.00;;;;;;4983955;28;20049;-72
2023/07/10 00:15:54;;;;;;;;;;;28.00;56.10;;;;;;4980220;28;19999;-73
2023/07/10 00:18:22;;;;;;;;;;;28.00;56.20;;;;;;4983880;28;19929;-72
2023/07/10 00:20:49;;;;;;;;;;;28.00;56.30;;;;;;4973339;28;19985;-72
2023/07/10 00:23:16;;;;;;;;;;;27.90;56.20;;;;;;4985268;28;19930;-72
2023/07/10 00:25:43;;;;;;;;;;;27.90;56.30;;;;;;4979938;28;20152;-72
2023/07/10 00:28:16;;;;;;;;;;;27.90;56.40;;;;;;4984660;28;19925;-73
2023/07/10 00:30:45;;;;;;;;;;;27.80;56.40;;;;;;4982237;28;20383;-75
2023/07/10 00:33:12;;;;;;;;;;;27.80;56.40;;;;;;4984325;28;20378;-73
2023/07/10 00:35:39;;;;;;;;;;;27.80;56.50;;;;;;4980983;28;19930;-72
2023/07/10 00:38:15;;;;;;;;;;;27.80;56.50;;;;;;4984312;28;19929;-73
2023/07/10 00:40:44;;;;;;;;;;;27.80;56.60;;;;;;4983872;28;20379;-72
2023/07/10 00:43:22;;;;;;;;;;;27.70;56.60;;;;;;4980356;28;19938;-74
2023/07/10 00:45:50;;;;;;;;;;;27.70;56.70;;;;;;4978160;28;19961;-72
2023/07/10 00:48:25;;;;;;;;;;;27.60;56.70;;;;;;4980472;28;19930;-72
2023/07/10 00:50:51;;;;;;;;;;;27.60;56.70;;;;;;4975801;28;19933;-72
2023/07/10 00:53:21;;;;;;;;;;;27.60;56.80;;;;;;4974512;28;20000;-72
2023/07/10 00:55:48;;;;;;;;;;;27.60;56.90;;;;;;4983581;28;20624;-72
2023/07/10 00:58:21;;;;;;;;;;;27.50;56.90;;;;;;4984267;28;20484;-72
2023/07/10 01:01:05;;;;;;;;;;;27.50;56.90;;;;;;4982560;28;20358;-73
2023/07/10 01:03:32;;;;;;;;;;;27.50;57.00;;;;;;4981920;28;19936;-73
2023/07/10 01:06:00;;;;;;;;;;;27.40;57.60;;;;;;4988325;28;19926;-71
2023/07/10 01:08:27;;;;;;;;;;;27.40;57.10;;;;;;4982786;28;19980;-72
2023/07/10 01:10:54;;;;;;;;;;;27.40;57.20;;;;;;4981650;28;19937;-72
2023/07/10 01:13:20;;;;;;;;;;;27.40;57.30;;;;;;4983834;28;19937;-72
2023/07/10 01:15:48;;;;;;;;;;;27.30;57.20;;;;;;4978182;28;19934;-74
2023/07/10 01:18:16;;;;;;;;;;;27.30;57.30;;;;;;4983842;28;20002;-73
2023/07/10 01:20:46;;;;;;;;;;;27.30;57.40;;;;;;4982985;28;20395;-72
2023/07/10 01:23:14;;;;;;;;;;;27.30;57.50;;;;;;4986578;28;20374;-72
2023/07/10 01:25:43;;;;;;;;;;;27.20;57.50;;;;;;4985827;28;19976;-72
2023/07/10 01:28:13;;;;;;;;;;;27.20;57.50;;;;;;4980502;28;19986;-70
2023/07/10 01:30:43;;;;;;;;;;;27.10;57.60;;;;;;4976586;28;19930;-72
2023/07/10 01:33:13;;;;;;;;;;;27.10;57.60;;;;;;4986620;28;20635;-72
2023/07/10 01:35:39;;;;;;;;;;;27.10;57.70;;;;;;4985327;28;20471;-72
2023/07/10 01:38:06;;;;;;;;;;;27.10;57.80;;;;;;4982601;28;19938;-73
2023/07/10 01:40:37;;;;;;;;;;;27.10;57.90;;;;;;4987547;28;19972;-72
2023/07/10 01:43:03;;;;;;;;;;;27.00;57.80;;;;;;4983887;28;19933;-73
2023/07/10 01:45:40;;;;;;;;;;;27.00;57.90;;;;;;4983465;28;20097;-72
2023/07/10 01:48:07;;;;;;;;;;;27.00;57.90;;;;;;4985046;28;19936;-72
2023/07/10 01:50:33;;;;;;;;;;;27.00;58.00;;;;;;4985405;28;19937;-72
2023/07/10 01:53:00;;;;;;;;;;;27.00;58.10;;;;;;4978158;28;19930;-73
2023/07/10 01:55:28;;;;;;;;;;;26.90;58.10;;;;;;4986333;28;19938;-72
2023/07/10 01:57:56;;;;;;;;;;;26.90;58.10;;;;;;4980666;28;19934;-73
2023/07/10 02:00:23;;;;;;;;;;;26.80;58.10;;;;;;4984231;28;20741;-74
2023/07/10 02:02:49;;;;;;;;;;;26.80;58.20;;;;;;4985576;28;20221;-72
2023/07/10 02:05:16;;;;;;;;;;;26.80;58.20;;;;;;4988939;28;19929;-72
2023/07/10 02:07:42;;;;;;;;;;;26.80;58.30;;;;;;4981314;28;19933;-73
2023/07/10 02:10:09;;;;;;;;;;;26.80;58.40;;;;;;4987085;28;19929;-72
2023/07/10 02:12:36;;;;;;;;;;;26.70;58.40;;;;;;4985523;28;19937;-72
2023/07/10 02:15:04;;;;;;;;;;;26.70;58.50;;;;;;4982796;28;20399;-70
2023/07/10 02:17:31;;;;;;;;;;;26.70;58.50;;;;;;4985088;28;20491;-72
2023/07/10 02:19:57;;;;;;;;;;;26.70;58.50;;;;;;4984214;28;20466;-72
2023/07/10 02:22:24;;;;;;;;;;;26.60;59.10;;;;;;4985639;28;20004;-73
2023/07/10 02:24:50;;;;;;;;;;;26.60;58.60;;;;;;4985344;28;19973;-72
2023/07/10 02:27:17;;;;;;;;;;;26.60;58.70;;;;;;4987105;28;19972;-72
2023/07/10 02:29:43;;;;;;;;;;;26.50;58.70;;;;;;4985683;28;19937;-72
2023/07/10 02:32:11;;;;;;;;;;;26.60;58.80;;;;;;4980971;28;19938;-72
2023/07/10 02:34:38;;;;;;;;;;;26.60;58.80;;;;;;4985240;28;20092;-72
2023/07/10 02:37:05;;;;;;;;;;;26.50;58.90;;;;;;4984633;28;20547;-72
2023/07/10 02:39:31;;;;;;;;;;;26.50;58.90;;;;;;4985993;28;19933;-72
2023/07/10 02:41:58;;;;;;;;;;;26.50;59.00;;;;;;4984624;28;20532;-73
2023/07/10 02:44:24;;;;;;;;;;;26.50;59.00;;;;;;4985509;28;19933;-72
2023/07/10 02:46:51;;;;;;;;;;;26.40;58.90;;;;;;4985057;28;19992;-72
2023/07/10 02:49:19;;;;;;;;;;;26.40;58.70;;;;;;4984494;28;19930;-73
2023/07/10 02:51:45;;;;;;;;;;;26.40;58.80;;;;;;4985102;28;19984;-74
2023/07/10 02:54:13;;;;;;;;;;;26.40;58.80;;;;;;4985110;28;19960;-72
2023/07/10 02:56:39;;;;;;;;;;;26.40;58.60;;;;;;4985936;28;20359;-72
2023/07/10 02:59:06;;;;;;;;;;;26.30;58.60;;;;;;4988637;28;20462;-73
2023/07/10 03:01:32;;;;;;;;;;;26.30;58.50;;;;;;4983670;28;20008;-72
2023/07/10 03:03:59;;;;;;;;;;;26.30;58.60;;;;;;4989243;28;20061;-73
2023/07/10 03:06:27;;;;;;;;;;;26.30;58.60;;;;;;4988648;28;19933;-72
2023/07/10 03:08:53;;;;;;;;;;;26.30;58.60;;;;;;4978301;28;19929;-74
2023/07/10 03:11:21;;;;;;;;;;;26.30;58.60;;;;;;4990755;28;19938;-72
2023/07/10 03:13:47;;;;;;;;;;;26.20;58.50;;;;;;4983474;28;19934;-72
2023/07/10 03:16:15;;;;;;;;;;;26.20;58.50;;;;;;4979655;28;19934;-72
2023/07/10 03:18:42;;;;;;;;;;;26.20;58.50;;;;;;4983751;28;19974;-72
2023/07/10 03:21:09;;;;;;;;;;;26.20;58.60;;;;;;4980788;28;19933;-74
2023/07/10 03:23:36;;;;;;;;;;;26.20;58.60;;;;;;4983483;28;21079;-72
2023/07/10 03:26:03;;;;;;;;;;;26.20;58.70;;;;;;4973431;28;19930;-72
2023/07/10 03:28:36;;;;;;;;;;;26.20;58.70;;;;;;4980977;28;19933;-72
2023/07/10 03:31:03;;;;;;;;;;;26.20;58.70;;;;;;4985093;28;20575;-72
2023/07/10 03:33:29;;;;;;;;;;;26.10;58.60;;;;;;4986379;28;19936;-72
2023/07/10 03:35:59;;;;;;;;;;;26.10;58.70;;;;;;4980462;28;19930;-73
2023/07/10 03:38:25;;;;;;;;;;;26.00;58.70;;;;;;4983296;28;19933;-72
2023/07/10 03:40:54;;;;;;;;;;;26.10;58.80;;;;;;4984388;28;19929;-73
2023/07/10 03:43:21;;;;;;;;;;;26.00;58.70;;;;;;4981952;28;19937;-73
2023/07/10 03:45:47;;;;;;;;;;;26.00;58.80;;;;;;4984757;28;20283;-72
2023/07/10 03:48:14;;;;;;;;;;;26.00;58.80;;;;;;4984783;28;19934;-73
2023/07/10 03:50:41;;;;;;;;;;;25.90;58.80;;;;;;4980872;28;19930;-72
2023/07/10 03:53:07;;;;;;;;;;;25.90;58.90;;;;;;4982702;28;20384;-72
2023/07/10 03:55:34;;;;;;;;;;;25.90;58.90;;;;;;4984741;28;19937;-74
2023/07/10 03:58:02;;;;;;;;;;;25.90;58.90;;;;;;4982231;28;19929;-72
2023/07/10 04:00:28;;;;;;;;;;;25.90;59.10;;;;;;4976057;28;19934;-72
2023/07/10 04:02:55;;;;;;;;;;;25.90;59.10;;;;;;4976779;28;19934;-71
2023/07/10 04:05:21;;;;;;;;;;;25.90;59.10;;;;;;4985572;28;19937;-72
2023/07/10 04:07:48;;;;;;;;;;;25.90;59.20;;;;;;4980741;28;19930;-72
2023/07/10 04:10:14;;;;;;;;;;;25.90;59.30;;;;;;4989640;28;19930;-72
2023/07/10 04:12:41;;;;;;;;;;;25.90;59.40;;;;;;4983826;28;19976;-72
2023/07/10 04:15:09;;;;;;;;;;;25.80;59.40;;;;;;4982663;28;19930;-72
2023/07/10 04:17:36;;;;;;;;;;;25.80;59.50;;;;;;4983429;28;20395;-73
2023/07/10 04:20:03;;;;;;;;;;;25.80;59.60;;;;;;4985067;28;19933;-73
2023/07/10 04:22:29;;;;;;;;;;;25.80;59.60;;;;;;4979672;28;19934;-72
2023/07/10 04:25:03;;;;;;;;;;;25.80;59.70;;;;;;4981383;28;20349;-73
2023/07/10 04:27:30;;;;;;;;;;;25.80;59.70;;;;;;4980992;28;19936;-72
2023/07/10 04:29:57;;;;;;;;;;;25.70;59.70;;;;;;4980146;28;19937;-72
2023/07/10 04:32:24;;;;;;;;;;;25.70;59.90;;;;;;4983797;28;19933;-73
2023/07/10 04:34:51;;;;;;;;;;;25.70;60.10;;;;;;4980563;28;20296;-72
2023/07/10 04:37:18;;;;;;;;;;;25.70;60.20;;;;;;4982842;28;19933;-72
2023/07/10 04:39:44;;;;;;;;;;;25.70;60.30;;;;;;4983598;28;20090;-73
2023/07/10 04:42:11;;;;;;;;;;;25.70;60.30;;;;;;4982155;28;19984;-74
2023/07/10 04:44:37;;;;;;;;;;;25.70;60.50;;;;;;4982324;28;19989;-72
2023/07/10 04:47:04;;;;;;;;;;;25.70;60.70;;;;;;4981651;28;20094;-74
2023/07/10 04:49:32;;;;;;;;;;;25.60;60.60;;;;;;4983678;28;20466;-72
2023/07/10 04:51:58;;;;;;;;;;;25.70;60.80;;;;;;4981360;28;19938;-72
2023/07/10 04:54:25;;;;;;;;;;;25.60;60.80;;;;;;4981250;28;19934;-71
2023/07/10 04:56:52;;;;;;;;;;;25.60;60.90;;;;;;4987283;28;20003;-72
2023/07/10 04:59:18;;;;;;;;;;;25.60;61.80;;;;;;4987531;28;20444;-71
2023/07/10 05:01:45;;;;;;;;;;;25.60;61.00;;;;;;4984617;28;19979;-73
2023/07/10 05:04:12;;;;;;;;;;;25.60;61.00;;;;;;4981839;28;19937;-72
2023/07/10 05:06:39;;;;;;;;;;;25.60;61.10;;;;;;4992847;28;20835;-71
2023/07/10 05:09:06;;;;;;;;;;;25.60;61.10;;;;;;4986269;28;19929;-73
2023/07/10 05:11:32;;;;;;;;;;;25.60;61.20;;;;;;4986553;28;19934;-73
2023/07/10 05:13:59;;;;;;;;;;;25.60;61.30;;;;;;4987086;28;20496;-74
2023/07/10 05:16:26;;;;;;;;;;;25.60;61.30;;;;;;4983097;28;19930;-72
2023/07/10 05:18:52;;;;;;;;;;;25.60;61.40;;;;;;4986314;28;19929;-73
2023/07/10 05:21:19;;;;;;;;;;;25.60;61.40;;;;;;4985267;28;19942;-72
2023/07/10 05:23:47;;;;;;;;;;;25.60;61.50;;;;;;4981635;28;19933;-72
2023/07/10 05:26:14;;;;;;;;;;;25.60;62.30;;;;;;4982429;28;20307;-71
2023/07/10 05:28:41;;;;;;;;;;;25.60;61.60;;;;;;4985582;28;20462;-72
2023/07/10 05:31:09;;;;;;;;;;;25.60;61.70;;;;;;4987107;28;19929;-72
2023/07/10 05:33:36;;;;;;;;;;;25.60;61.90;;;;;;4979186;28;19934;-73
2023/07/10 05:36:04;;;;;;;;;;;25.50;61.90;;;;;;4987698;28;19977;-73
2023/07/10 05:38:31;;;;;;;;;;;25.60;62.30;;;;;;4987438;28;19980;-73
2023/07/10 05:40:59;;;;;;;;;;;25.50;62.30;;;;;;4987784;28;19934;-74
2023/07/10 05:43:26;;;;;;;;;;;25.50;62.50;;;;;;4982640;28;19935;-74
2023/07/10 05:45:54;;;;;;;;;;;25.50;62.70;;;;;;4977220;28;19945;-71
2023/07/10 05:48:20;;;;;;;;;;;25.50;62.90;;;;;;4985664;28;20375;-74
2023/07/10 05:50:47;;;;;;;;;;;25.50;63.10;;;;;;4982854;28;19980;-74
2023/07/10 05:53:14;;;;;;;;;;;25.50;63.30;;;;;;4984944;28;20048;-73
2023/07/10 05:55:43;;;;;;;;;;;25.50;63.40;;;;;;4977563;28;20027;-73
2023/07/10 05:58:11;;;;;;;;;;;25.50;63.50;;;;;;4987452;28;19933;-73
2023/07/10 06:00:38;;;;;;;;;;;25.50;63.50;;;;;;4983340;28;19933;-73
2023/07/10 06:03:04;;;;;;;;;;;25.50;63.80;;;;;;4982489;28;19952;-73
2023/07/10 06:05:31;;;;;;;;;;;25.50;64.60;;;;;;4993104;28;19952;-74
2023/07/10 06:07:57;;;;;;;;;;;25.50;64.00;;;;;;4987276;28;19933;-73
2023/07/10 06:10:24;;;;;;;;;;;25.50;64.20;;;;;;4988625;28;19930;-73
2023/07/10 06:12:50;;;;;;;;;;;25.50;64.20;;;;;;4984396;28;20311;-69
2023/07/10 06:15:18;;;;;;;;;;;25.50;64.80;;;;;;4984283;28;19974;-69
2023/07/10 06:17:45;;;;;;;;;;;25.60;65.50;;;;;;4986211;28;19934;-69
2023/07/10 06:20:12;;;;;;;;;;;25.60;65.70;;;;;;4986786;28;19929;-68
2023/07/10 06:22:38;;;;;;;;;;;25.60;65.60;;;;;;4985657;28;19930;-69
2023/07/10 06:25:05;;;;;;;;;;;25.70;65.40;;;;;;4986562;28;20343;-69
2023/07/10 06:27:31;;;;;;;;;;;25.70;65.10;;;;;;4986473;28;19930;-69
2023/07/10 06:29:59;;;;;;;;;;;25.80;64.90;;;;;;4984078;28;19961;-70
2023/07/10 06:32:27;;;;;;;;;;;25.90;64.90;;;;;;4985048;28;19933;-69
2023/07/10 06:34:53;;;;;;;;;;;25.90;64.70;;;;;;4986706;28;19937;-69
2023/07/10 06:37:20;;;;;;;;;;;25.90;64.50;;;;;;4984366;28;19930;-69
2023/07/10 06:40:01;;;;;;;;;;;26.00;64.50;;;;;;4981444;28;19930;-69
2023/07/10 06:42:28;;;;;;;;;;;26.00;64.40;;;;;;4982975;28;19930;-69
2023/07/10 06:44:54;;;;;;;;;;;26.10;64.30;;;;;;4985118;28;19945;-69
2023/07/10 06:47:21;;;;;;;;;;;26.10;64.20;;;;;;4983945;28;20458;-68
2023/07/10 06:49:48;;;;;;;;;;;26.10;64.00;;;;;;4980940;28;19938;-69
2023/07/10 06:52:15;;;;;;;;;;;26.20;64.00;;;;;;4984480;28;19934;-69
2023/07/10 06:54:41;;;;;;;;;;;26.20;63.90;;;;;;4985755;28;20461;-69
2023/07/10 06:57:08;;;;;;;;;;;26.20;63.90;;;;;;4984131;28;19941;-69
2023/07/10 06:59:34;;;;;;;;;;;26.20;63.90;;;;;;4986087;28;19988;-69
2023/07/10 07:02:01;;;;;;;;;;;26.30;63.90;;;;;;4980320;28;20043;-69
2023/07/10 07:04:27;;;;;;;;;;;26.30;63.70;;;;;;4985397;28;19960;-69
2023/07/10 07:06:55;;;;;;;;;;;26.30;63.60;;;;;;4985430;28;19929;-69
2023/07/10 07:09:22;;;;;;;;;;;26.40;63.60;;;;;;4985751;28;19936;-69
2023/07/10 07:11:48;;;;;;;;;;;26.40;63.50;;;;;;4984795;28;19930;-69
2023/07/10 07:14:15;;;;;;;;;;;26.40;64.20;;;;;;4985987;28;19964;-69
2023/07/10 07:16:41;;;;;;;;;;;26.40;63.50;;;;;;4982208;28;19926;-69
2023/07/10 07:19:08;;;;;;;;;;;26.40;63.50;;;;;;4980210;28;19937;-70
2023/07/10 07:21:34;;;;;;;;;;;26.50;63.60;;;;;;4985596;28;20485;-69
2023/07/10 07:24:02;;;;;;;;;;;26.50;63.50;;;;;;4985414;28;19930;-70
2023/07/10 07:26:29;;;;;;;;;;;26.50;63.50;;;;;;4985219;28;19960;-69
2023/07/10 07:28:55;;;;;;;;;;;26.50;63.50;;;;;;4981423;28;19937;-69
2023/07/10 07:31:22;;;;;;;;;;;26.60;63.60;;;;;;4983925;28;19981;-68
2023/07/10 07:33:49;;;;;;;;;;;26.60;63.50;;;;;;4979115;28;19930;-68
2023/07/10 07:36:15;;;;;;;;;;;26.60;63.90;;;;;;4979750;28;19938;-68
2023/07/10 07:38:42;;;;;;;;;;;26.60;63.90;;;;;;4985403;28;20384;-69
2023/07/10 07:41:09;;;;;;;;;;;26.60;63.90;;;;;;4985277;28;19933;-69
2023/07/10 07:43:36;;;;;;;;;;;26.60;63.80;;;;;;4984565;28;19934;-69
2023/07/10 07:46:03;;;;;;;;;;;26.60;64.00;;;;;;4983303;28;19929;-69
2023/07/10 07:48:29;;;;;;;;;;;26.70;64.40;;;;;;4985040;28;19929;-69
2023/07/10 07:50:56;;;;;;;;;;;26.70;64.30;;;;;;4978085;28;19952;-69
2023/07/10 07:53:23;;;;;;;;;;;26.70;64.10;;;;;;4981714;28;19934;-69
2023/07/10 07:55:50;;;;;;;;;;;26.70;64.10;;;;;;4985062;28;19932;-69
2023/07/10 07:58:18;;;;;;;;;;;26.70;64.10;;;;;;4981187;28;19933;-68
2023/07/10 08:00:44;;;;;;;;;;;26.70;64.20;;;;;;4982635;28;19936;-70
2023/07/10 08:03:11;;;;;;;;;;;26.80;64.20;;;;;;4984926;28;19976;-68
2023/07/10 08:05:38;;;;;;;;;;;26.80;64.10;;;;;;4988856;28;19964;-69
2023/07/10 08:08:05;;;;;;;;;;;26.90;64.20;;;;;;4980879;28;19938;-69
2023/07/10 08:10:35;;;;;;;;;;;26.90;64.20;;;;;;4987064;28;19936;-70
2023/07/10 08:13:02;;;;;;;;;;;26.90;65.00;;;;;;4983997;28;20600;-69
2023/07/10 08:15:30;;;;;;;;;;;27.00;64.20;;;;;;4983871;28;19933;-69
2023/07/10 08:17:57;;;;;;;;;;;27.00;64.20;;;;;;4984493;28;20012;-68
2023/07/10 08:20:24;;;;;;;;;;;27.00;64.10;;;;;;4984788;28;19948;-69
2023/07/10 08:22:50;;;;;;;;;;;27.10;64.30;;;;;;4984261;28;19929;-68
2023/07/10 08:25:17;;;;;;;;;;;27.00;64.00;;;;;;4980399;28;19933;-69
2023/07/10 08:27:45;;;;;;;;;;;27.10;64.00;;;;;;4984470;28;19934;-69
2023/07/10 08:30:12;;;;;;;;;;;27.10;64.00;;;;;;4985654;28;20099;-69
2023/07/10 08:32:40;;;;;;;;;;;27.10;64.00;;;;;;4983690;28;19926;-70
2023/07/10 08:35:07;;;;;;;;;;;27.10;63.80;;;;;;4988922;28;19933;-69
2023/07/10 08:37:36;;;;;;;;;;;27.20;63.80;;;;;;4987803;28;19958;-69
2023/07/10 08:40:03;;;;;;;;;;;27.20;63.80;;;;;;4983616;28;19937;-69
2023/07/10 08:42:31;;;;;;;;;;;27.20;63.70;;;;;;4988923;28;19930;-69
2023/07/10 08:44:59;;;;;;;;;;;27.30;63.60;;;;;;4987916;28;19992;-69
2023/07/10 08:47:29;;;;;;;;;;;27.30;63.60;;;;;;4978488;28;19937;-69
2023/07/10 08:50:01;;;;;;;;;;;27.30;63.50;;;;;;4982519;28;19968;-69
2023/07/10 08:52:32;;;;;;;;;;;27.30;63.30;;;;;;4987770;28;19941;-69
2023/07/10 08:54:58;;;;;;;;;;;27.40;63.30;;;;;;4988043;28;19938;-69
2023/07/10 08:57:27;;;;;;;;;;;27.40;63.20;;;;;;4988314;28;19976;-69
2023/07/10 08:59:56;;;;;;;;;;;27.40;63.10;;;;;;4981822;28;19929;-69
2023/07/10 09:02:26;;;;;;;;;;;27.50;63.10;;;;;;4989135;28;19936;-70
2023/07/10 09:04:52;;;;;;;;;;;27.50;63.00;;;;;;4983980;28;19929;-68
2023/07/10 09:07:21;;;;;;;;;;;27.50;62.90;;;;;;4980663;28;20667;-69
2023/07/10 09:09:49;;;;;;;;;;;27.60;63.00;;;;;;4988667;28;19934;-70
2023/07/10 09:12:18;;;;;;;;;;;27.50;62.80;;;;;;4993249;28;20925;-69
2023/07/10 09:14:48;;;;;;;;;;;27.60;62.70;;;;;;4983296;28;19937;-70
2023/07/10 09:17:31;;;;;;;;;;;27.60;62.70;;;;;;4985926;28;19941;-69
2023/07/10 09:20:00;;;;;;;;;;;27.60;62.60;;;;;;4988058;28;19926;-69
2023/07/10 09:22:28;;;;;;;;;;;27.60;62.50;;;;;;4986154;28;19929;-69
2023/07/10 09:24:55;;;;;;;;;;;27.60;62.40;;;;;;4987406;28;20355;-69
2023/07/10 09:27:21;;;;;;;;;;;27.70;62.60;;;;;;4987843;28;19960;-69
2023/07/10 09:29:50;;;;;;;;;;;27.70;62.60;;;;;;4987865;28;19955;-69
2023/07/10 09:32:18;;;;;;;;;;;27.80;62.60;;;;;;4979782;28;20003;-69
2023/07/10 09:34:46;;;;;;;;;;;27.70;62.60;;;;;;4985741;28;19934;-70
2023/07/10 09:37:13;;;;;;;;;;;27.80;62.60;;;;;;4982080;28;19936;-69
2023/07/10 09:39:41;;;;;;;;;;;27.80;62.60;;;;;;4986637;28;19968;-69
2023/07/10 09:42:13;;;;;;;;;;;27.80;62.50;;;;;;4986338;28;19930;-69
2023/07/10 09:44:44;;;;;;;;;;;27.80;62.50;;;;;;4985214;28;19929;-70
2023/07/10 09:47:12;;;;;;;;;;;27.90;62.60;;;;;;4981777;28;19941;-69
2023/07/10 09:49:41;;;;;;;;;;;27.90;62.40;;;;;;4986173;28;19934;-70
2023/07/10 09:52:15;;;;;;;;;;;27.90;62.20;;;;;;4983511;28;19930;-69
2023/07/10 09:54:43;;;;;;;;;;;28.00;62.20;;;;;;4985765;28;19941;-70
2023/07/10 09:57:12;;;;;;;;;;;28.00;62.00;;;;;;4987298;28;19937;-69
2023/07/10 09:59:38;;;;;;;;;;;28.10;61.90;;;;;;4987312;28;19929;-70
2023/07/10 10:02:19;;;;;;;;;;;28.10;61.70;;;;;;4985103;28;19937;-69
2023/07/10 10:04:49;;;;;;;;;;;28.10;61.60;;;;;;4981315;28;19965;-69
2023/07/10 10:07:19;;;;;;;;;;;28.20;61.50;;;;;;4984129;28;19989;-68
2023/07/10 10:09:48;;;;;;;;;;;28.20;61.40;;;;;;4983885;28;20353;-68
2023/07/10 10:12:19;;;;;;;;;;;28.20;61.30;;;;;;4979896;28;19937;-69
2023/07/10 10:15:00;;;;;;;;;;;28.20;61.20;;;;;;4976841;28;20415;-69
2023/07/10 10:17:27;;;;;;;;;;;28.30;61.10;;;;;;4982905;28;19930;-69
2023/07/10 10:19:55;;;;;;;;;;;28.30;61.00;;;;;;4986610;28;19984;-69
2023/07/10 10:22:24;;;;;;;;;;;28.30;60.90;;;;;;4987509;28;19930;-70
2023/07/10 10:24:52;;;;;;;;;;;28.40;60.80;;;;;;4983528;28;19929;-69
2023/07/10 10:27:23;;;;;;;;;;;28.40;60.30;;;;;;4985556;28;19937;-69
2023/07/10 10:30:05;;;;;;;;;;;28.40;60.10;;;;;;4979648;28;19936;-69
2023/07/10 10:32:36;;;;;;;;;;;28.50;60.20;;;;;;5001810;28;20507;-69
2023/07/10 10:35:05;;;;;;;;;;;28.50;60.00;;;;;;5000210;28;19929;-69
2023/07/10 10:37:36;;;;;;;;;;;28.50;59.90;;;;;;5005570;28;19930;-69
2023/07/10 10:40:08;;;;;;;;;;;28.60;59.70;;;;;;5006535;28;19933;-69
2023/07/10 10:42:38;;;;;;;;;;;28.70;59.30;;;;;;5006781;28;20418;-69
2023/07/10 10:45:11;;;;;;;;;;;28.70;59.20;;;;;;5005892;28;20546;-69
2023/07/10 10:47:41;;;;;;;;;;;28.80;59.10;;;;;;4985511;28;19955;-69
2023/07/10 10:50:16;;;;;;;;;;;28.80;59.00;;;;;;4979917;28;19934;-68
2023/07/10 10:52:48;;;;;;;;;;;28.90;58.80;;;;;;4982873;28;19930;-69
2023/07/10 10:55:25;;;;;;;;;;;29.00;58.80;;;;;;4985252;28;19934;-69
2023/07/10 10:57:58;;;;;;;;;;;29.00;58.60;;;;;;4984374;28;20016;-69
2023/07/10 11:00:30;;;;;;;;;;;29.10;58.60;;;;;;4984029;28;19929;-69
2023/07/10 11:03:05;;;;;;;;;;;29.10;58.10;;;;;;4990368;28;19937;-70
2023/07/10 11:05:35;;;;;;;;;;;29.20;58.10;;;;;;4985401;28;19952;-69
2023/07/10 11:08:03;;;;;;;;;;;29.20;58.00;;;;;;4984518;28;19984;-69
2023/07/10 11:10:36;;;;;;;;;;;29.30;57.90;;;;;;4987512;28;20166;-69
2023/07/10 11:13:03;;;;;;;;;;;29.40;57.70;;;;;;4982418;28;19930;-69
2023/07/10 11:15:30;;;;;;;;;;;29.40;57.60;;;;;;4987053;28;19983;-69
2023/07/10 11:17:58;;;;;;;;;;;29.40;57.40;;;;;;5006030;28;20030;-69
2023/07/10 11:20:26;;;;;;;;;;;29.40;57.30;;;;;;5007983;28;19933;-69
2023/07/10 11:22:53;;;;;;;;;;;29.50;57.30;;;;;;5008728;28;20710;-69
2023/07/10 11:25:29;;;;;;;;;;;29.60;57.00;;;;;;5000141;28;19956;-70
2023/07/10 11:28:01;;;;;;;;;;;29.60;56.40;;;;;;5002859;28;19933;-69
2023/07/10 11:30:30;;;;;;;;;;;29.60;56.00;;;;;;4998699;28;19937;-69
2023/07/10 11:32:58;;;;;;;;;;;29.70;56.00;;;;;;5002640;28;20524;-69
2023/07/10 11:35:25;;;;;;;;;;;29.70;55.70;;;;;;4997358;28;19926;-69
2023/07/10 11:38:07;;;;;;;;;;;29.80;55.30;;;;;;4997847;28;20524;-70
2023/07/10 11:40:44;;;;;;;;;;;29.90;55.20;;;;;;5002184;28;20362;-70
2023/07/10 11:43:38;;;;;;;;;;;29.90;55.00;;;;;;5001313;28;19925;-70
2023/07/10 11:46:16;;;;;;;;;;;30.00;52.40;;;;;;4975081;28;19929;-69
2023/07/10 11:48:44;;;;;;;;;;;30.00;51.20;;;;;;5000305;28;19929;-69
2023/07/10 11:51:23;;;;;;;;;;;30.10;51.70;;;;;;5000988;28;19934;-69
2023/07/10 11:54:01;;;;;;;;;;;30.10;51.70;;;;;;5006081;28;19932;-69
2023/07/10 11:56:27;;;;;;;;;;;30.20;51.80;;;;;;5004638;28;19941;-69
2023/07/10 11:58:54;;;;;;;;;;;30.20;51.30;;;;;;5011021;28;19980;-69
2023/07/10 12:01:22;;;;;;;;;;;30.30;51.40;;;;;;5002146;28;20198;-70
2023/07/10 12:03:49;;;;;;;;;;;30.30;51.10;;;;;;5002430;28;19937;-69
2023/07/10 12:06:16;;;;;;;;;;;30.40;51.20;;;;;;5003970;28;20035;-69
2023/07/10 12:08:44;;;;;;;;;;;30.50;51.40;;;;;;5004069;28;19934;-69
2023/07/10 12:11:25;;;;;;;;;;;30.50;51.40;;;;;;5006965;28;19930;-69
2023/07/10 12:13:52;;;;;;;;;;;30.60;51.30;;;;;;5002231;28;19926;-69
2023/07/10 12:16:19;;;;;;;;;;;30.60;50.30;;;;;;5003485;28;19932;-69
2023/07/10 12:18:46;;;;;;;;;;;30.60;49.50;;;;;;5004990;28;20047;-69
2023/07/10 12:21:17;;;;;;;;;;;30.70;49.10;;;;;;5006858;28;20342;-69
2023/07/10 12:23:52;;;;;;;;;;;30.70;49.00;;;;;;5004260;28;20414;-69
2023/07/10 12:26:18;;;;;;;;;;;30.70;48.90;;;;;;5004906;28;19937;-69
2023/07/10 12:28:45;;;;;;;;;;;30.80;49.20;;;;;;5008571;28;19929;-70
2023/07/10 12:31:13;;;;;;;;;;;30.80;48.70;;;;;;5001548;28;19951;-68
2023/07/10 12:33:41;;;;;;;;;;;30.90;48.00;;;;;;5000397;28;19929;-69
2023/07/10 12:36:17;;;;;;;;;;;30.90;47.70;;;;;;5004153;28;19929;-69
2023/07/10 12:38:44;;;;;;;;;;;31.00;47.70;;;;;;5003538;28;19969;-68
2023/07/10 12:41:11;;;;;;;;;;;31.00;47.70;;;;;;5003784;28;19929;-70
2023/07/10 12:43:37;;;;;;;;;;;31.10;47.60;;;;;;5005540;28;19933;-69
2023/07/10 12:46:13;;;;;;;;;;;31.10;47.10;;;;;;5000798;28;19933;-69
2023/07/10 12:48:39;;;;;;;;;;;31.20;47.10;;;;;;5004787;28;19936;-69
2023/07/10 12:51:07;;;;;;;;;;;31.20;47.10;;;;;;5000894;28;19929;-69
2023/07/10 12:53:38;;;;;;;;;;;31.30;47.00;;;;;;5007148;28;19978;-69
2023/07/10 12:56:07;;;;;;;;;;;31.30;47.20;;;;;;5005241;28;20291;-69
2023/07/10 12:58:33;;;;;;;;;;;31.40;47.30;;;;;;5001904;28;19933;-69
2023/07/10 13:01:01;;;;;;;;;;;31.40;47.50;;;;;;5004034;28;19984;-69
2023/07/10 13:03:29;;;;;;;;;;;31.40;47.50;;;;;;5002780;28;19929;-70
2023/07/10 13:05:58;;;;;;;;;;;31.50;47.30;;;;;;5003409;28;19929;-69
2023/07/10 13:08:31;;;;;;;;;;;31.50;47.00;;;;;;5003838;28;19936;-70
2023/07/10 13:10:59;;;;;;;;;;;31.60;47.40;;;;;;5009464;28;19934;-69
2023/07/10 13:13:27;;;;;;;;;;;31.60;46.20;;;;;;5002181;28;19934;-70
2023/07/10 13:15:53;;;;;;;;;;;31.60;45.70;;;;;;5003275;28;19933;-69
2023/07/10 13:18:22;;;;;;;;;;;31.70;46.10;;;;;;5004207;28;19940;-70
2023/07/10 13:20:49;;;;;;;;;;;31.70;45.80;;;;;;5010106;28;20028;-70
2023/07/10 13:23:16;;;;;;;;;;;31.80;45.90;;;;;;5009451;28;19930;-69
2023/07/10 13:25:43;;;;;;;;;;;31.80;45.90;;;;;;5008575;28;19930;-69
2023/07/10 13:28:21;;;;;;;;;;;31.80;44.80;;;;;;5007331;28;20802;-69
2023/07/10 13:30:48;;;;;;;;;;;31.90;44.40;;;;;;5008318;28;20698;-74
2023/07/10 13:33:18;;;;;;;;;;;32.00;42.30;;;;;;5006244;28;20115;-74
2023/07/10 13:35:46;;;;;;;;;;;32.00;42.50;;;;;;5013994;28;19977;-74
2023/07/10 13:38:12;;;;;;;;;;;31.90;43.20;;;;;;5007179;28;20469;-73
2023/07/10 13:40:39;;;;;;;;;;;31.90;43.50;;;;;;5011878;28;20379;-74
2023/07/10 13:43:10;;;;;;;;;;;31.90;43.50;;;;;;5006143;28;19936;-73
2023/07/10 13:45:38;;;;;;;;;;;31.90;43.60;;;;;;5002800;28;19929;-73
2023/07/10 13:48:09;;;;;;;;;;;31.90;43.50;;;;;;5006518;28;19971;-73
2023/07/10 13:50:35;;;;;;;;;;;31.90;43.90;;;;;;5014441;28;19929;-73
2023/07/10 13:53:02;;;;;;;;;;;31.90;44.10;;;;;;5005252;28;19933;-73
2023/07/10 13:55:28;;;;;;;;;;;31.90;44.10;;;;;;5012177;28;19965;-75
2023/07/10 13:57:55;;;;;;;;;;;31.90;44.20;;;;;;5007145;28;19991;-74
2023/07/10 14:00:21;;;;;;;;;;;31.90;44.20;;;;;;5001549;28;19933;-73
2023/07/10 14:02:51;;;;;;;;;;;32.00;44.30;;;;;;5006495;28;19952;-73
2023/07/10 14:05:19;;;;;;;;;;;32.00;44.10;;;;;;5007365;28;19937;-69
2023/07/10 14:07:45;;;;;;;;;;;32.10;40.60;;;;;;5004693;28;20043;-71
2023/07/10 14:10:14;;;;;;;;;;;32.60;39.40;;;;;;5006127;28;20031;-70
2023/07/10 14:12:41;;;;;;;;;;;32.80;40.40;;;;;;5007237;28;19929;-70
2023/07/10 14:15:07;;;;;;;;;;;32.90;40.70;;;;;;5002833;28;19934;-71
2023/07/10 14:17:35;;;;;;;;;;;33.10;41.10;;;;;;5006816;28;19929;-70
2023/07/10 14:20:04;;;;;;;;;;;33.20;41.20;;;;;;5005490;28;19933;-70
2023/07/10 14:22:32;;;;;;;;;;;33.20;40.70;;;;;;5008391;28;19930;-71